createdAt,value
2023-01-26T00:01:16.614Z,11.40
2023-01-26T00:03:43.838Z,12.00
2023-01-26T00:06:12.963Z,13.65
2023-01-26T00:08:42.176Z,12.00
2023-01-26T00:11:10.572Z,11.00
2023-01-26T00:13:37.417Z,12.32
2023-01-26T00:16:05.105Z,10.73
2023-01-26T00:18:31.966Z,9.13
2023-01-26T00:21:00.619Z,10.35
2023-01-26T00:23:29.514Z,11.23
2023-01-26T00:25:56.395Z,14.27
2023-01-26T00:28:23.154Z,15.05
2023-01-26T00:30:49.863Z,16.15
2023-01-26T00:33:17.255Z,14.23
2023-01-26T00:35:44.576Z,12.00
2023-01-26T00:38:14.811Z,14.93
2023-01-26T00:40:41.378Z,12.70
2023-01-26T00:43:08.009Z,12.73
2023-01-26T00:45:35.549Z,15.75
2023-01-26T00:48:05.504Z,11.20
2023-01-26T00:50:33.189Z,13.48
2023-01-26T00:53:00.366Z,13.18
2023-01-26T00:55:32.371Z,13.27
2023-01-26T00:58:07.654Z,13.45
2023-01-26T01:00:36.700Z,13.55
2023-01-26T01:03:05.768Z,15.60
2023-01-26T01:05:33.074Z,15.07
2023-01-26T01:08:00.019Z,14.57
2023-01-26T01:10:27.611Z,13.65
2023-01-26T01:12:55.128Z,12.75
2023-01-26T01:15:23.871Z,14.57
2023-01-26T01:17:50.575Z,12.75
2023-01-26T01:20:17.372Z,15.13
2023-01-26T01:22:44.014Z,16.27
2023-01-26T01:25:10.811Z,16.92
2023-01-26T01:27:37.475Z,14.50
2023-01-26T01:30:08.072Z,20.60
2023-01-26T01:32:37.353Z,23.63
2023-01-26T01:35:04.254Z,27.50
2023-01-26T01:37:31.487Z,21.98
2023-01-26T01:39:58.053Z,23.42
2023-01-26T01:42:25.461Z,20.67
2023-01-26T01:45:23.246Z,19.92
2023-01-26T01:47:50.512Z,21.73
2023-01-26T01:50:17.900Z,18.35
2023-01-26T01:52:44.827Z,19.83
2023-01-26T01:55:14.589Z,20.58
2023-01-26T01:57:45.761Z,21.60
2023-01-26T02:00:18.653Z,20.23
2023-01-26T02:03:14.198Z,25.73
2023-01-26T02:05:59.092Z,29.80
2023-01-26T02:08:31.870Z,29.38
2023-01-26T02:11:02.220Z,29.73
2023-01-26T02:13:31.678Z,31.00
2023-01-26T02:15:59.772Z,31.55
2023-01-26T02:18:27.502Z,29.67
2023-01-26T02:20:59.157Z,27.38
2023-01-26T02:23:31.721Z,27.03
2023-01-26T02:28:27.420Z,26.88
2023-01-26T02:30:55.939Z,28.48
2023-01-26T02:33:25.675Z,24.38
2023-01-26T02:35:55.672Z,28.00
2023-01-26T02:38:25.214Z,29.98
2023-01-26T02:41:00.282Z,26.25
2023-01-26T02:43:28.208Z,27.55
2023-01-26T02:45:55.447Z,24.98
2023-01-26T02:48:41.212Z,29.17
2023-01-26T02:51:08.197Z,30.05
2023-01-26T02:53:34.982Z,29.45
2023-01-26T02:56:01.572Z,29.23
2023-01-26T02:58:28.259Z,29.55
2023-01-26T03:00:54.976Z,27.85
2023-01-26T03:03:25.376Z,30.83
2023-01-26T03:05:52.368Z,33.55
2023-01-26T03:08:19.039Z,28.10
2023-01-26T03:10:47.555Z,35.55
2023-01-26T03:13:14.488Z,31.92
2023-01-26T03:15:52.584Z,35.20
2023-01-26T03:18:41.686Z,30.50
2023-01-26T03:21:35.045Z,31.50
2023-01-26T03:24:20.974Z,34.85
2023-01-26T03:27:07.416Z,30.20
2023-01-26T03:29:34.835Z,32.80
2023-01-26T03:32:02.340Z,32.67
2023-01-26T03:34:29.645Z,30.35
2023-01-26T03:36:57.219Z,30.70
2023-01-26T03:39:42.705Z,37.10
2023-01-26T03:42:28.575Z,37.95
2023-01-26T03:45:13.823Z,37.25
2023-01-26T03:48:01.209Z,34.80
2023-01-26T03:50:48.089Z,37.47
2023-01-26T03:53:36.631Z,36.50
2023-01-26T03:56:23.184Z,32.70
2023-01-26T03:58:57.082Z,34.05
2023-01-26T04:01:28.134Z,35.97
2023-01-26T04:04:16.411Z,33.75
2023-01-26T04:07:05.292Z,32.92
2023-01-26T04:09:33.005Z,33.53
2023-01-26T04:12:00.357Z,33.38
2023-01-26T04:14:49.915Z,30.08
2023-01-26T04:17:37.928Z,31.00
2023-01-26T04:20:24.872Z,27.65
2023-01-26T04:22:51.607Z,27.73
2023-01-26T04:25:20.930Z,31.00
2023-01-26T04:27:47.747Z,27.67
2023-01-26T04:30:17.025Z,27.15
2023-01-26T04:32:44.214Z,29.60
2023-01-26T04:35:11.232Z,27.65
2023-01-26T04:37:39.050Z,29.17
2023-01-26T04:40:06.996Z,28.35
2023-01-26T04:42:35.351Z,30.48
2023-01-26T04:45:04.578Z,28.45
2023-01-26T04:47:31.843Z,28.13
2023-01-26T04:49:58.528Z,26.10
2023-01-26T04:52:25.262Z,29.33
2023-01-26T04:54:51.822Z,30.55
2023-01-26T04:57:21.133Z,26.00
2023-01-26T04:59:50.246Z,29.27
2023-01-26T05:02:18.615Z,29.50
2023-01-26T05:04:45.224Z,34.28
2023-01-26T05:07:13.612Z,30.73
2023-01-26T05:09:40.387Z,28.58
2023-01-26T05:12:43.439Z,25.75
2023-01-26T05:15:32.585Z,27.60
2023-01-26T05:18:13.226Z,24.67
2023-01-26T05:20:55.588Z,28.98
2023-01-26T05:23:26.911Z,25.40
2023-01-26T05:26:14.613Z,27.83
2023-01-26T05:28:53.401Z,25.25
2023-01-26T05:31:20.096Z,27.42
2023-01-26T05:33:47.216Z,26.15
2023-01-26T05:36:19.382Z,28.88
2023-01-26T05:38:47.212Z,26.73
2023-01-26T05:41:15.042Z,31.92
2023-01-26T05:43:54.659Z,25.25
2023-01-26T05:46:34.559Z,28.25
2023-01-26T05:49:02.354Z,27.25
2023-01-26T05:51:29.755Z,30.73
2023-01-26T05:53:56.404Z,29.25
2023-01-26T05:56:23.032Z,31.88
2023-01-26T05:58:54.897Z,34.47
2023-01-26T06:01:21.652Z,31.08
2023-01-26T06:03:55.802Z,31.60
2023-01-26T06:06:22.763Z,32.38
2023-01-26T06:09:00.017Z,31.05
2023-01-26T06:11:33.262Z,29.50
2023-01-26T06:14:26.040Z,27.45
2023-01-26T06:16:54.421Z,30.17
2023-01-26T06:19:21.070Z,31.88
2023-01-26T06:21:53.500Z,32.63
2023-01-26T06:24:20.712Z,37.15
2023-01-26T06:26:49.336Z,30.98
2023-01-26T06:29:17.312Z,34.92
2023-01-26T06:31:44.107Z,37.92
2023-01-26T06:34:11.691Z,38.22
2023-01-26T06:36:41.584Z,33.97
2023-01-26T06:39:12.213Z,40.55
2023-01-26T06:41:43.107Z,40.20
2023-01-26T06:44:10.184Z,39.20
2023-01-26T06:46:37.057Z,42.60
2023-01-26T06:49:05.067Z,47.97
2023-01-26T06:51:56.116Z,44.00
2023-01-26T06:54:31.264Z,47.13
2023-01-26T06:57:21.135Z,41.10
2023-01-26T07:00:07.047Z,43.95
2023-01-26T07:02:54.418Z,42.30
2023-01-26T07:05:21.133Z,49.90
2023-01-26T07:07:47.813Z,55.83
2023-01-26T07:10:14.587Z,47.72
2023-01-26T07:12:43.714Z,44.45
2023-01-26T07:15:11.751Z,48.30
2023-01-26T07:17:40.107Z,50.88
2023-01-26T07:20:07.897Z,50.60
2023-01-26T07:22:34.482Z,46.15
2023-01-26T07:25:01.079Z,46.65
2023-01-26T07:27:27.627Z,51.20
2023-01-26T07:29:54.178Z,45.25
2023-01-26T07:32:20.819Z,50.47
2023-01-26T07:34:48.275Z,46.50
2023-01-26T07:37:16.343Z,49.92
2023-01-26T07:39:42.954Z,51.05
2023-01-26T07:42:11.148Z,46.97
2023-01-26T07:44:48.964Z,46.60
2023-01-26T07:47:15.807Z,49.55
2023-01-26T07:49:42.381Z,55.67
2023-01-26T07:52:09.243Z,48.33
2023-01-26T07:54:35.821Z,55.38
2023-01-26T07:57:02.370Z,49.60
2023-01-26T07:59:29.009Z,59.85
2023-01-26T08:01:55.677Z,58.30
2023-01-26T08:04:22.315Z,54.83
2023-01-26T08:06:51.477Z,51.28
2023-01-26T08:09:18.458Z,62.45
2023-01-26T08:11:45.051Z,52.97
2023-01-26T08:14:11.599Z,54.58
2023-01-26T08:16:38.236Z,53.67
2023-01-26T08:19:04.927Z,55.95
2023-01-26T08:21:31.516Z,53.55
2023-01-26T08:24:01.970Z,56.38
2023-01-26T08:26:29.408Z,58.95
2023-01-26T08:28:56.069Z,58.97
2023-01-26T08:31:24.265Z,53.20
2023-01-26T08:33:52.428Z,52.30
2023-01-26T08:36:22.105Z,54.90
2023-01-26T08:38:49.542Z,58.30
2023-01-26T08:41:16.097Z,53.53
2023-01-26T08:43:42.736Z,50.92
2023-01-26T08:46:10.189Z,54.78
2023-01-26T08:48:37.416Z,69.20
2023-01-26T08:51:05.558Z,52.15
2023-01-26T08:53:33.511Z,55.38
2023-01-26T08:56:05.859Z,59.60
2023-01-26T08:58:33.716Z,60.25
2023-01-26T09:01:04.731Z,55.05
2023-01-26T09:03:31.546Z,59.55
2023-01-26T09:06:01.928Z,62.78
2023-01-26T09:08:28.785Z,61.78
2023-01-26T09:10:55.986Z,54.25
2023-01-26T09:13:22.799Z,56.97
2023-01-26T09:15:49.472Z,59.03
2023-01-26T09:18:16.376Z,56.05
2023-01-26T09:20:42.968Z,53.80
2023-01-26T09:23:10.239Z,58.20
2023-01-26T09:25:37.536Z,57.67
2023-01-26T09:28:05.677Z,50.78
2023-01-26T09:30:33.023Z,50.75
2023-01-26T09:33:04.859Z,55.78
2023-01-26T09:35:31.629Z,57.15
2023-01-26T09:37:58.217Z,59.97
2023-01-26T09:41:15.983Z,59.08
2023-01-26T09:43:55.172Z,58.20
2023-01-26T09:46:24.174Z,56.80
2023-01-26T09:49:13.681Z,59.33
2023-01-26T09:51:48.555Z,57.90
2023-01-26T09:54:36.607Z,59.25
2023-01-26T09:57:12.634Z,59.13
2023-01-26T09:59:46.581Z,56.30
2023-01-26T10:02:13.113Z,54.28
2023-01-26T10:04:45.381Z,53.65
2023-01-26T10:07:13.988Z,56.90
2023-01-26T10:09:49.826Z,55.17
2023-01-26T10:12:24.379Z,54.92
2023-01-26T10:15:03.287Z,59.97
2023-01-26T10:17:36.690Z,55.58
2023-01-26T10:20:12.454Z,64.68
2023-01-26T10:22:56.281Z,55.72
2023-01-26T10:25:34.889Z,62.13
2023-01-26T10:28:27.232Z,60.47
2023-01-26T10:30:54.089Z,58.30
2023-01-26T10:33:27.103Z,55.30
2023-01-26T10:35:54.016Z,68.10
2023-01-26T10:38:32.533Z,62.08
2023-01-26T10:41:14.866Z,67.05
2023-01-26T10:43:43.270Z,66.45
2023-01-26T10:46:38.124Z,72.05
2023-01-26T10:49:19.918Z,60.15
2023-01-26T10:52:07.182Z,60.87
2023-01-26T10:54:36.844Z,63.55
2023-01-26T10:57:07.325Z,60.78
2023-01-26T10:59:49.304Z,61.13
2023-01-26T11:02:15.822Z,62.78
2023-01-26T11:05:07.082Z,63.80
2023-01-26T11:07:38.563Z,66.47
2023-01-26T11:10:25.465Z,66.13
2023-01-26T11:13:07.330Z,62.22
2023-01-26T11:15:41.173Z,68.85
2023-01-26T11:18:44.477Z,68.05
2023-01-26T11:21:37.190Z,60.35
2023-01-26T11:24:13.704Z,61.90
2023-01-26T11:26:49.097Z,59.80
2023-01-26T11:29:32.235Z,60.97
2023-01-26T11:32:13.865Z,55.30
2023-01-26T11:34:52.180Z,61.97
2023-01-26T11:37:47.656Z,61.55
2023-01-26T11:40:30.106Z,60.05
2023-01-26T11:42:56.687Z,61.70
2023-01-26T11:45:50.516Z,62.03
2023-01-26T11:48:43.079Z,58.50
2023-01-26T11:51:26.082Z,61.33
2023-01-26T11:54:17.889Z,63.50
2023-01-26T11:57:11.857Z,55.10
2023-01-26T11:59:50.434Z,63.75
2023-01-26T12:02:35.743Z,60.17
2023-01-26T12:05:13.667Z,60.95
2023-01-26T12:07:54.698Z,60.47
2023-01-26T12:10:29.697Z,59.80
2023-01-26T12:13:21.041Z,61.35
2023-01-26T12:15:54.695Z,54.63
2023-01-26T12:18:50.605Z,56.13
2023-01-26T12:21:21.283Z,55.08
2023-01-26T12:23:51.486Z,62.70
2023-01-26T12:26:22.585Z,63.90
2023-01-26T12:29:06.440Z,57.95
2023-01-26T12:32:04.749Z,73.82
2023-01-26T12:34:33.897Z,77.43
2023-01-26T12:37:06.153Z,78.65
2023-01-26T12:39:39.872Z,70.32
2023-01-26T12:42:15.555Z,73.40
2023-01-26T12:44:50.386Z,71.32
2023-01-26T12:47:29.558Z,78.00
2023-01-26T12:50:15.608Z,79.03
2023-01-26T12:52:55.820Z,76.15
2023-01-26T12:55:28.641Z,71.72
2023-01-26T12:58:00.794Z,67.30
2023-01-26T13:00:34.367Z,71.75
2023-01-26T13:03:07.694Z,82.00
2023-01-26T13:05:36.049Z,75.60
2023-01-26T13:08:30.822Z,76.65
2023-01-26T13:11:04.785Z,74.78
2023-01-26T13:13:52.462Z,83.85
2023-01-26T13:16:19.044Z,72.03
2023-01-26T13:18:56.883Z,75.45
2023-01-26T13:21:35.689Z,81.35
2023-01-26T13:24:02.390Z,76.35
2023-01-26T13:26:31.973Z,82.18
2023-01-26T13:29:29.307Z,71.35
2023-01-26T13:31:59.795Z,63.05
2023-01-26T13:34:48.339Z,79.82
2023-01-26T13:37:28.707Z,70.88
2023-01-26T13:40:00.241Z,64.25
2023-01-26T13:42:36.655Z,69.60
2023-01-26T13:45:08.473Z,74.50
2023-01-26T13:47:43.575Z,67.63
2023-01-26T13:50:23.971Z,65.32
2023-01-26T13:52:51.100Z,73.68
2023-01-26T13:55:30.952Z,73.93
2023-01-26T13:58:27.607Z,75.07
2023-01-26T14:01:14.227Z,75.53
2023-01-26T14:03:41.060Z,77.30
2023-01-26T14:06:13.700Z,71.32
2023-01-26T14:08:45.186Z,80.13
2023-01-26T14:11:19.724Z,215.93
2023-01-26T14:13:51.935Z,72.47
2023-01-26T14:16:43.493Z,73.25
2023-01-26T14:19:19.928Z,69.82
2023-01-26T14:21:54.192Z,73.72
2023-01-26T14:24:29.686Z,74.57
2023-01-26T14:26:56.358Z,72.95
2023-01-26T14:29:25.180Z,74.65
2023-01-26T14:31:54.785Z,74.65
2023-01-26T14:34:23.876Z,68.68
2023-01-26T14:37:13.879Z,65.68
2023-01-26T14:39:42.870Z,61.72
2023-01-26T14:42:14.565Z,63.58
2023-01-26T14:44:41.450Z,59.67
2023-01-26T14:47:24.911Z,52.15
2023-01-26T14:49:54.302Z,53.72
2023-01-26T14:52:27.093Z,54.42
2023-01-26T14:54:57.539Z,52.35
2023-01-26T14:57:26.620Z,58.25
2023-01-26T14:59:56.672Z,61.10
2023-01-26T15:02:37.262Z,60.15
2023-01-26T15:05:31.939Z,53.53
2023-01-26T15:08:05.399Z,56.97
2023-01-26T15:10:41.447Z,55.53
2023-01-26T15:13:10.939Z,70.93
2023-01-26T15:15:48.687Z,73.80
2023-01-26T15:18:19.461Z,62.95
2023-01-26T15:21:00.241Z,57.08
2023-01-26T15:23:32.199Z,55.47
2023-01-26T15:26:15.076Z,60.13
2023-01-26T15:28:42.010Z,58.17
2023-01-26T15:31:20.440Z,57.55
2023-01-26T15:33:49.672Z,56.45
2023-01-26T15:36:28.520Z,57.88
2023-01-26T15:39:00.074Z,52.15
2023-01-26T15:41:27.847Z,53.97
2023-01-26T15:43:54.767Z,56.30
2023-01-26T15:46:21.383Z,52.78
2023-01-26T15:48:48.688Z,56.28
2023-01-26T15:51:15.746Z,58.72
2023-01-26T15:53:42.385Z,54.90
2023-01-26T15:56:14.268Z,57.97
2023-01-26T15:58:41.707Z,54.78
2023-01-26T16:01:14.761Z,53.55
2023-01-26T16:03:41.674Z,56.65
2023-01-26T16:06:19.456Z,56.53
2023-01-26T16:08:46.087Z,49.92
2023-01-26T16:11:13.890Z,53.58
2023-01-26T16:13:44.414Z,61.83
2023-01-26T16:18:42.138Z,74.30
2023-01-26T16:21:20.958Z,84.60
2023-01-26T16:23:48.182Z,71.63
2023-01-26T16:26:17.809Z,64.72
2023-01-26T16:28:45.665Z,60.70
2023-01-26T16:31:21.488Z,61.97
2023-01-26T16:33:49.189Z,78.18
2023-01-26T16:36:17.352Z,64.03
2023-01-26T16:38:44.857Z,74.32
2023-01-26T16:41:31.830Z,73.28
2023-01-26T16:44:00.276Z,59.70
2023-01-26T16:46:28.896Z,57.35
2023-01-26T16:48:56.206Z,57.70
2023-01-26T16:51:29.349Z,55.03
2023-01-26T16:53:56.587Z,53.80
2023-01-26T16:56:24.879Z,49.60
2023-01-26T16:58:51.782Z,58.75
2023-01-26T17:01:24.204Z,66.43
2023-01-26T17:03:51.801Z,56.78
2023-01-26T17:06:19.451Z,56.70
2023-01-26T17:08:46.496Z,57.42
2023-01-26T17:11:21.489Z,50.65
2023-01-26T17:13:48.510Z,55.05
2023-01-26T17:16:21.051Z,55.22
2023-01-26T17:18:48.922Z,59.70
2023-01-26T17:21:17.253Z,85.65
2023-01-26T17:23:46.714Z,77.32
2023-01-26T17:26:16.830Z,63.80
2023-01-26T17:28:49.018Z,55.15
2023-01-26T17:31:20.662Z,52.63
2023-01-26T17:33:48.888Z,49.13
2023-01-26T17:36:16.804Z,57.22
2023-01-26T17:38:43.943Z,50.78
2023-01-26T17:41:10.577Z,45.40
2023-01-26T17:43:37.127Z,48.70
2023-01-26T17:46:15.565Z,46.28
2023-01-26T17:48:45.223Z,44.03
2023-01-26T17:51:19.829Z,44.33
2023-01-26T17:53:49.692Z,47.63
2023-01-26T17:56:19.416Z,44.50
2023-01-26T17:58:51.133Z,45.67
2023-01-26T18:01:19.097Z,48.72
2023-01-26T18:03:45.792Z,45.50
2023-01-26T18:06:12.625Z,46.22
2023-01-26T18:08:40.109Z,42.45
2023-01-26T18:11:09.952Z,46.55
2023-01-26T18:13:36.907Z,49.15
2023-01-26T18:16:06.156Z,49.75
2023-01-26T18:18:32.889Z,47.13
2023-01-26T18:21:16.830Z,45.03
2023-01-26T18:23:48.219Z,44.90
2023-01-26T18:26:16.899Z,45.25
2023-01-26T18:28:44.233Z,46.67
2023-01-26T18:31:17.013Z,42.85
2023-01-26T18:33:44.362Z,45.75
2023-01-26T18:36:12.653Z,46.40
2023-01-26T18:38:40.306Z,53.63
2023-01-26T18:41:14.991Z,48.80
2023-01-26T18:43:42.986Z,59.28
2023-01-26T18:46:10.912Z,60.60
2023-01-26T18:48:37.827Z,53.08
2023-01-26T18:51:05.076Z,45.55
2023-01-26T18:53:31.659Z,50.45
2023-01-26T18:56:12.480Z,44.70
2023-01-26T18:58:40.050Z,44.70
2023-01-26T19:01:10.477Z,49.10
2023-01-26T19:03:38.459Z,43.08
2023-01-26T19:06:06.055Z,48.20
2023-01-26T19:08:34.307Z,45.50
2023-01-26T19:11:08.196Z,42.63
2023-01-26T19:13:35.822Z,46.55
2023-01-26T19:16:02.694Z,44.25
2023-01-26T19:18:29.443Z,44.60
2023-01-26T19:21:01.550Z,49.50
2023-01-26T19:23:28.754Z,53.33
2023-01-26T19:25:55.602Z,53.65
2023-01-26T19:28:22.265Z,50.33
2023-01-26T19:30:48.881Z,51.00
2023-01-26T19:33:24.510Z,42.30
2023-01-26T19:35:54.663Z,46.03
2023-01-26T19:38:21.534Z,51.40
2023-01-26T19:40:50.127Z,48.20
2023-01-26T19:43:19.091Z,47.80
2023-01-26T19:45:50.585Z,49.67
2023-01-26T19:48:17.246Z,46.57
2023-01-26T19:50:43.860Z,45.22
2023-01-26T19:53:11.164Z,45.70
2023-01-26T19:55:37.738Z,46.70
2023-01-26T19:58:04.323Z,49.72
2023-01-26T20:00:30.994Z,48.95
2023-01-26T20:02:57.715Z,46.97
2023-01-26T20:05:24.360Z,49.33
2023-01-26T20:07:51.020Z,43.38
2023-01-26T20:10:17.645Z,49.08
2023-01-26T20:12:44.273Z,47.60
2023-01-26T20:15:12.458Z,49.60
2023-01-26T20:17:39.189Z,53.17
2023-01-26T20:20:06.402Z,50.40
2023-01-26T20:22:34.158Z,45.92
2023-01-26T20:25:00.876Z,49.30
2023-01-26T20:27:29.279Z,43.65
2023-01-26T20:29:56.259Z,50.67
2023-01-26T20:32:22.966Z,46.42
2023-01-26T20:34:49.907Z,43.75
2023-01-26T20:37:16.564Z,46.97
2023-01-26T20:39:46.654Z,45.10
2023-01-26T20:42:16.555Z,51.05
2023-01-26T20:44:43.533Z,45.05
2023-01-26T20:47:10.792Z,46.10
2023-01-26T20:49:37.461Z,51.42
2023-01-26T20:52:07.653Z,47.35
2023-01-26T20:54:37.637Z,50.92
2023-01-26T20:57:04.225Z,46.60
2023-01-26T20:59:31.078Z,48.28
2023-01-26T21:01:57.762Z,44.53
2023-01-26T21:04:24.414Z,45.30
2023-01-26T21:06:51.070Z,47.80
2023-01-26T21:09:17.758Z,49.70
2023-01-26T21:11:44.316Z,51.90
2023-01-26T21:14:13.505Z,46.00
2023-01-26T21:16:40.386Z,45.78
2023-01-26T21:19:07.113Z,43.30
2023-01-26T21:21:33.870Z,45.50
2023-01-26T21:24:00.588Z,45.20
2023-01-26T21:26:27.892Z,47.20
2023-01-26T21:28:56.813Z,39.58
2023-01-26T21:31:25.603Z,44.65
2023-01-26T21:33:53.210Z,42.03
2023-01-26T21:36:22.440Z,46.00
2023-01-26T21:38:51.972Z,39.13
2023-01-26T21:41:40.238Z,42.42
2023-01-26T21:44:06.785Z,43.40
2023-01-26T21:46:33.643Z,43.38
2023-01-26T21:49:00.541Z,41.33
2023-01-26T21:51:46.540Z,42.50
2023-01-26T21:54:14.151Z,41.38
2023-01-26T21:56:40.882Z,41.75
2023-01-26T21:59:10.556Z,39.03
2023-01-26T22:01:39.554Z,37.55
2023-01-26T22:04:08.654Z,35.63
2023-01-26T22:06:37.194Z,35.55
2023-01-26T22:09:05.300Z,35.60
2023-01-26T22:11:32.370Z,30.58
2023-01-26T22:13:59.102Z,28.20
2023-01-26T22:16:26.292Z,31.10
2023-01-26T22:18:52.874Z,32.20
2023-01-26T22:21:20.228Z,30.65
2023-01-26T22:23:47.175Z,31.63
2023-01-26T22:26:19.615Z,31.67
2023-01-26T22:31:22.881Z,30.35
2023-01-26T22:33:50.370Z,30.27
2023-01-26T22:36:17.223Z,32.30
2023-01-26T22:38:43.865Z,29.45
2023-01-26T22:41:21.171Z,30.63
2023-01-26T22:43:49.039Z,27.40
2023-01-26T22:46:17.525Z,27.85
2023-01-26T22:48:44.421Z,29.40
2023-01-26T22:51:18.166Z,30.20
2023-01-26T22:53:45.208Z,29.83
2023-01-26T22:56:12.353Z,31.00
2023-01-26T22:58:56.618Z,28.35
2023-01-26T23:01:25.018Z,31.10
2023-01-26T23:03:53.476Z,28.40
2023-01-26T23:06:20.553Z,29.52
2023-01-26T23:08:47.412Z,28.75
2023-01-26T23:11:23.429Z,29.00
2023-01-26T23:13:51.879Z,28.60
2023-01-26T23:16:18.854Z,30.58
2023-01-26T23:18:45.738Z,26.58
2023-01-26T23:21:12.382Z,30.05
2023-01-26T23:23:40.964Z,26.45
2023-01-26T23:26:08.699Z,26.20
2023-01-26T23:28:38.021Z,26.73
2023-01-26T23:31:05.104Z,26.13
2023-01-26T23:33:33.969Z,27.55
2023-01-26T23:36:00.913Z,28.08
2023-01-26T23:38:29.076Z,24.85
2023-01-26T23:40:56.339Z,27.50
2023-01-26T23:43:23.616Z,25.95
2023-01-26T23:45:50.838Z,24.05
2023-01-26T23:48:18.127Z,24.45
2023-01-26T23:50:45.058Z,23.85
2023-01-26T23:53:12.302Z,23.02
2023-01-26T23:55:43.104Z,23.73
2023-01-26T23:58:11.157Z,22.17
